KTOL/TOL METAR and TAF weather

Enter ICAO airport designator
Station Type Date Time Source
KTOL METAR 2019/02/22 22:52 UTC NOAA

KTOL 222252Z 09006KT 8SM CLR 01/M04 A3040 RMK AO2 SLP303 T00111044


Station Type Date Time Source
KTOL Decoded METAR 2019/02/22 22:52 UTC NOAA

TOLEDO EXPRESS AIRPORT, OH, United States (KTOL) 41-35N 083-48W 210M
Feb 22, 2019 - 05:52 PM EST / 2019.02.22 2252 UTC
Wind: from the E (090 degrees) at 7 MPH (6 KT):0
Visibility: 8 mile(s):0
Sky conditions: clear
Temperature: 34.0 F (1.1 C)
Windchill: 28 F (-2 C):1
Dew Point: 24.1 F (-4.4 C)
Relative Humidity: 66%
Pressure (altimeter): 30.4 in. Hg (1029 hPa)
ob: KTOL 222252Z 09006KT 8SM CLR 01/M04 A3040 RMK AO2 SLP303 T00111044
cycle: 23

Station Type Date Time Source
KTOL TAF 2019/02/22 18:36 UTC NOAA

TAF KTOL 221734Z 2218/2318 08006KT P6SM FEW110 SCT250
FM231500 09008KT P6SM BKN050 OVC100


Example: see airport list